Time;durP1;ratioP1;P1;durP2;ratioP2;P2;SDS_P1;SDS_P2;PMS_P1;PMS_P2;Temp;Humidity;BMP_temperature;BMP_pressure;BME280_temperature;BME280_humidity;BME280_pressure;Samples;Min_cycle;Max_cycle;Signal;HPM_P1;HPM_P2
2022/05/07 00:02:07;;;;;;;33.90;21.53;;;;;;;-145.18;100.00;60484.78;5033556;28;20033;-68
2022/05/07 00:04:36;;;;;;;31.37;19.93;;;;;;;-145.18;100.00;60484.78;5033705;28;20048;-68
2022/05/07 00:07:06;;;;;;;33.70;20.30;;;;;;;-145.18;100.00;60484.78;5034046;28;20041;-68
2022/05/07 00:09:33;;;;;;;32.43;19.80;;;;;;;-145.18;100.00;60484.78;5036191;28;20029;-68
2022/05/07 00:11:58;;;;;;;33.03;19.70;;;;;;;-145.18;100.00;60484.78;5029333;28;20037;-68
2022/05/07 00:14:24;;;;;;;30.40;18.40;;;;;;;-145.18;100.00;60484.78;5035737;28;20082;-68
2022/05/07 00:19:34;;;;;;;30.37;18.60;;;;;;;-145.18;100.00;60484.78;5036174;28;20048;-68
2022/05/07 00:22:01;;;;;;;29.27;18.57;;;;;;;-145.18;100.00;60484.78;5034764;28;21072;-68
2022/05/07 00:24:26;;;;;;;26.50;18.27;;;;;;;-145.18;100.00;60484.78;5035333;28;20033;-68
2022/05/07 00:26:52;;;;;;;35.53;19.20;;;;;;;-145.18;100.00;60484.78;5033464;28;20031;-68
2022/05/07 00:29:17;;;;;;;27.13;17.97;;;;;;;-145.18;100.00;60484.78;5034049;28;20033;-68
2022/05/07 00:31:43;;;;;;;27.73;18.43;;;;;;;-145.18;100.00;60484.78;5031728;28;20071;-68
2022/05/07 00:34:08;;;;;;;28.67;17.97;;;;;;;-145.18;100.00;60484.78;5035925;28;20039;-68
2022/05/07 00:36:34;;;;;;;28.63;18.27;;;;;;;-145.18;100.00;60484.78;5032557;28;20452;-68
2022/05/07 00:38:59;;;;;;;30.20;17.97;;;;;;;-145.18;100.00;60484.78;5035096;28;20045;-68
2022/05/07 00:41:25;;;;;;;25.20;16.70;;;;;;;-145.18;100.00;60484.78;5034779;28;20033;-68
2022/05/07 00:43:50;;;;;;;24.73;16.30;;;;;;;-145.18;100.00;60484.78;5031851;28;20045;-68
2022/05/07 00:46:16;;;;;;;22.77;16.13;;;;;;;-145.18;100.00;60484.78;5031543;28;20049;-68
2022/05/07 00:48:42;;;;;;;22.53;16.13;;;;;;;-145.18;100.00;60484.78;5035092;28;20037;-68
2022/05/07 00:53:53;;;;;;;25.23;17.67;;;;;;;-145.18;100.00;60484.78;5037428;28;20040;-68
2022/05/07 00:56:18;;;;;;;25.80;18.07;;;;;;;-145.18;100.00;60484.78;5037896;28;20481;-68
2022/05/07 00:58:44;;;;;;;29.50;18.20;;;;;;;-145.18;100.00;60484.78;5038404;28;20116;-68
2022/05/07 01:01:09;;;;;;;25.73;17.47;;;;;;;-145.18;100.00;60484.78;5030554;28;20026;-68
2022/05/07 01:03:35;;;;;;;25.87;15.83;;;;;;;-145.18;100.00;60484.78;5038202;28;20033;-68
2022/05/07 01:06:01;;;;;;;23.40;15.87;;;;;;;-145.18;100.00;60484.78;5039514;28;20029;-68
2022/05/07 01:08:29;;;;;;;26.83;15.47;;;;;;;-145.18;100.00;60484.78;5036317;28;20033;-68
2022/05/07 01:10:56;;;;;;;24.23;16.47;;;;;;;-145.18;100.00;60484.78;5032955;28;20036;-68
2022/05/07 01:13:22;;;;;;;27.53;17.20;;;;;;;-145.18;100.00;60484.78;5039683;28;20392;-68
2022/05/07 01:15:54;;;;;;;25.30;17.13;;;;;;;-145.18;100.00;60484.78;5039942;28;20025;-68
2022/05/07 01:18:19;;;;;;;28.65;18.63;;;;;;;-145.18;100.00;60484.78;5037103;28;20036;-68
2022/05/07 01:20:45;;;;;;;28.40;18.50;;;;;;;-145.18;100.00;60484.78;5031169;28;20021;-68
2022/05/07 01:23:10;;;;;;;29.07;18.80;;;;;;;-145.18;100.00;60484.78;5037425;28;20021;-68
2022/05/07 01:25:36;;;;;;;27.40;18.33;;;;;;;-145.18;100.00;60484.78;5046569;28;20033;-68
2022/05/07 01:28:01;;;;;;;33.97;18.50;;;;;;;-145.18;100.00;60484.78;5049367;28;20095;-68
2022/05/07 01:30:27;;;;;;;37.90;19.93;;;;;;;-145.18;100.00;60484.78;5038369;28;20033;-68
2022/05/07 01:32:53;;;;;;;34.37;20.50;;;;;;;-145.18;100.00;60484.78;5031658;28;20413;-68
2022/05/07 01:35:18;;;;;;;27.70;19.30;;;;;;;-145.18;100.00;60484.78;5037141;28;20033;-68
2022/05/07 01:37:44;;;;;;;29.10;19.27;;;;;;;-145.18;100.00;60484.78;5036055;28;20025;-68
2022/05/07 01:40:11;;;;;;;32.53;20.07;;;;;;;-145.18;100.00;60484.78;5035025;28;20033;-68
2022/05/07 01:42:36;;;;;;;35.30;19.90;;;;;;;-145.18;100.00;60484.78;5040294;28;20021;-68
2022/05/07 01:45:03;;;;;;;34.30;19.97;;;;;;;-145.18;100.00;60484.78;5040407;28;20445;-68
2022/05/07 01:50:12;;;;;;;40.03;21.37;;;;;;;-145.18;100.00;60484.78;5038044;28;20397;-68
2022/05/07 01:52:38;;;;;;;33.87;22.17;;;;;;;-145.18;100.00;60484.78;5032459;28;20026;-68
2022/05/07 01:55:04;;;;;;;34.10;21.53;;;;;;;-145.18;100.00;60484.78;5043676;28;20074;-68
2022/05/07 01:57:29;;;;;;;34.93;21.70;;;;;;;-145.18;100.00;60484.78;5038477;28;20025;-68
2022/05/07 01:59:55;;;;;;;38.83;22.70;;;;;;;-145.18;100.00;60484.78;5036739;28;20372;-68
2022/05/07 02:02:20;;;;;;;36.70;23.40;;;;;;;-145.18;100.00;60484.78;5030290;28;20033;-68
2022/05/07 02:04:46;;;;;;;38.50;23.47;;;;;;;-145.18;100.00;60484.78;5031757;28;20035;-68
2022/05/07 02:07:11;;;;;;;40.60;23.97;;;;;;;-145.18;100.00;60484.78;5033311;28;20033;-68
2022/05/07 02:09:36;;;;;;;33.97;22.97;;;;;;;-145.18;100.00;60484.78;5030932;28;20100;-68
2022/05/07 02:12:03;;;;;;;37.07;23.03;;;;;;;-145.18;100.00;60484.78;5031582;28;20025;-68
2022/05/07 02:14:29;;;;;;;43.17;22.57;;;;;;;-145.18;100.00;60484.78;5042058;28;20052;-68
2022/05/07 02:16:55;;;;;;;39.37;23.20;;;;;;;-145.18;100.00;60484.78;5043095;28;20032;-68
2022/05/07 02:19:20;;;;;;;36.93;22.93;;;;;;;-145.18;100.00;60484.78;5033646;28;20030;-68
2022/05/07 02:21:46;;;;;;;39.17;23.07;;;;;;;-145.18;100.00;60484.78;5030638;28;20385;-68
2022/05/07 02:24:11;;;;;;;36.07;24.00;;;;;;;-145.18;100.00;60484.78;5032251;28;20421;-68
2022/05/07 02:26:36;;;;;;;38.20;24.73;;;;;;;-145.18;100.00;60484.78;5034928;28;20218;-68
2022/05/07 02:29:02;;;;;;;39.40;24.13;;;;;;;-145.18;100.00;60484.78;5031417;28;20017;-68
2022/05/07 02:31:27;;;;;;;38.23;22.73;;;;;;;-145.18;100.00;60484.78;5032924;28;20060;-68
2022/05/07 02:33:53;;;;;;;34.03;22.50;;;;;;;-145.18;100.00;60484.78;5035351;28;20389;-68
2022/05/07 02:36:18;;;;;;;36.10;22.90;;;;;;;-145.18;100.00;60484.78;5042673;28;20028;-67
2022/05/07 02:38:44;;;;;;;34.87;19.67;;;;;;;-145.18;100.00;60484.78;5044618;28;20017;-67
2022/05/07 02:43:53;;;;;;;32.43;20.47;;;;;;;-145.18;100.00;60484.78;5034770;28;20039;-67
2022/05/07 02:46:18;;;;;;;31.57;19.03;;;;;;;-145.18;100.00;60484.78;5039843;28;20457;-67
2022/05/07 02:48:45;;;;;;;32.20;20.23;;;;;;;-145.18;100.00;60484.78;5032645;28;20366;-67
2022/05/07 02:51:11;;;;;;;31.00;20.17;;;;;;;-145.18;100.00;60484.78;5033925;28;20467;-67
2022/05/07 02:53:37;;;;;;;33.53;19.70;;;;;;;-145.18;100.00;60484.78;5042193;28;20031;-67
2022/05/07 02:56:02;;;;;;;30.90;19.30;;;;;;;-145.18;100.00;60484.78;5031904;28;20384;-68
2022/05/07 02:58:28;;;;;;;29.67;18.90;;;;;;;-145.18;100.00;60484.78;5030432;28;20025;-68
2022/05/07 03:00:54;;;;;;;28.97;19.50;;;;;;;-145.18;100.00;60484.78;5034112;28;20083;-67
2022/05/07 03:03:19;;;;;;;30.87;20.63;;;;;;;-145.18;100.00;60484.78;5043334;28;20056;-68
2022/05/07 03:05:45;;;;;;;31.10;20.60;;;;;;;-145.18;100.00;60484.78;5030726;28;20492;-68
2022/05/07 03:08:10;;;;;;;28.73;19.33;;;;;;;-145.18;100.00;60484.78;5029479;28;20037;-68
2022/05/07 03:10:36;;;;;;;30.13;18.97;;;;;;;-145.18;100.00;60484.78;5037680;28;20029;-68
2022/05/07 03:13:02;;;;;;;31.30;19.07;;;;;;;-145.18;100.00;60484.78;5041467;28;20083;-68
2022/05/07 03:15:28;;;;;;;33.03;19.20;;;;;;;-145.18;100.00;60484.78;5037184;28;20025;-68
2022/05/07 03:17:53;;;;;;;31.03;20.50;;;;;;;-145.18;100.00;60484.78;5038899;28;20039;-68
2022/05/07 03:20:18;;;;;;;31.70;19.40;;;;;;;-145.18;100.00;60484.78;5030877;28;20108;-68
2022/05/07 03:22:45;;;;;;;31.37;20.60;;;;;;;-145.18;100.00;60484.78;5030530;28;20369;-68
2022/05/07 03:25:10;;;;;;;29.63;19.33;;;;;;;-145.18;100.00;60484.78;5035510;28;20104;-68
2022/05/07 03:27:36;;;;;;;29.83;19.73;;;;;;;-145.18;100.00;60484.78;5039150;28;20108;-68
2022/05/07 03:30:02;;;;;;;31.00;18.87;;;;;;;-145.18;100.00;60484.78;5036659;28;20025;-68
2022/05/07 03:32:27;;;;;;;32.13;20.63;;;;;;;-145.18;100.00;60484.78;5039890;28;20029;-68
2022/05/07 03:34:53;;;;;;;30.23;19.27;;;;;;;-145.18;100.00;60484.78;5034418;28;20100;-67
2022/05/07 03:37:18;;;;;;;32.07;18.60;;;;;;;-145.18;100.00;60484.78;5036013;28;20032;-68
2022/05/07 03:39:43;;;;;;;34.07;20.43;;;;;;;-145.18;100.00;60484.78;5043736;28;20025;-68
2022/05/07 03:42:09;;;;;;;33.70;20.57;;;;;;;-145.18;100.00;60484.78;5043674;28;20065;-67
2022/05/07 03:44:34;;;;;;;28.40;20.07;;;;;;;-145.18;100.00;60484.78;5045890;28;20456;-68
2022/05/07 03:47:00;;;;;;;28.80;20.63;;;;;;;-145.18;100.00;60484.78;5036511;28;20097;-68
2022/05/07 03:49:25;;;;;;;37.63;21.60;;;;;;;-145.18;100.00;60484.78;5033412;28;20374;-68
2022/05/07 03:54:34;;;;;;;33.47;21.23;;;;;;;-145.18;100.00;60484.78;5046431;28;20396;-68
2022/05/07 03:56:59;;;;;;;27.40;19.63;;;;;;;-145.18;100.00;60484.78;5038928;28;20029;-68
2022/05/07 03:59:25;;;;;;;34.90;19.83;;;;;;;-145.18;100.00;60484.78;5040386;28;20462;-68
2022/05/07 04:01:50;;;;;;;28.03;19.40;;;;;;;-145.18;100.00;60484.78;5038591;28;21573;-68
2022/05/07 04:04:16;;;;;;;33.37;19.70;;;;;;;-145.18;100.00;60484.78;5034379;28;20033;-68
2022/05/07 04:06:41;;;;;;;35.10;20.20;;;;;;;-145.18;100.00;60484.78;5039334;28;20367;-68
2022/05/07 04:09:06;;;;;;;31.30;20.30;;;;;;;-145.18;100.00;60484.78;5037962;28;20484;-68
2022/05/07 04:11:32;;;;;;;33.03;20.00;;;;;;;-145.18;100.00;60484.78;5039425;28;20029;-68
2022/05/07 04:13:57;;;;;;;30.97;20.07;;;;;;;-145.18;100.00;60484.78;5040969;28;20032;-68
2022/05/07 04:16:22;;;;;;;28.17;19.33;;;;;;;-145.18;100.00;60484.78;5048314;28;20028;-68
2022/05/07 04:18:48;;;;;;;28.13;18.60;;;;;;;-145.18;100.00;60484.78;5043707;28;20025;-68
2022/05/07 04:21:13;;;;;;;28.17;17.87;;;;;;;-145.18;100.00;60484.78;5040559;28;20060;-68
2022/05/07 04:23:38;;;;;;;24.73;16.17;;;;;;;-145.18;100.00;60484.78;5043445;28;20025;-68
2022/05/07 04:26:04;;;;;;;26.17;16.63;;;;;;;-145.18;100.00;60484.78;5046653;28;20111;-68
2022/05/07 04:28:29;;;;;;;28.43;15.53;;;;;;;-145.18;100.00;60484.78;5032107;28;20029;-68
2022/05/07 04:30:55;;;;;;;22.73;15.47;;;;;;;-145.18;100.00;60484.78;5038691;28;20063;-68
2022/05/07 04:33:21;;;;;;;23.87;15.67;;;;;;;-145.18;100.00;60484.78;5036732;28;20087;-68
2022/05/07 04:35:48;;;;;;;22.77;15.13;;;;;;;-145.18;100.00;60484.78;5041351;28;20590;-68
2022/05/07 04:38:14;;;;;;;23.93;16.03;;;;;;;-145.18;100.00;60484.78;5046358;28;20048;-68
2022/05/07 04:40:39;;;;;;;28.10;16.37;;;;;;;-145.18;100.00;60484.78;5040476;28;20064;-68
2022/05/07 04:43:04;;;;;;;28.33;17.03;;;;;;;-145.18;100.00;60484.78;5037232;28;20025;-68
2022/05/07 04:45:30;;;;;;;24.07;16.13;;;;;;;-145.18;100.00;60484.78;5034464;28;20028;-68
2022/05/07 04:47:55;;;;;;;25.70;16.00;;;;;;;-145.18;100.00;60484.78;5034204;28;20397;-68
2022/05/07 04:50:21;;;;;;;27.37;16.50;;;;;;;-145.18;100.00;60484.78;5034747;28;20109;-68
2022/05/07 04:52:46;;;;;;;25.40;16.60;;;;;;;-145.18;100.00;60484.78;5047289;28;20134;-68
2022/05/07 04:55:11;;;;;;;23.13;16.47;;;;;;;-145.18;100.00;60484.78;5042011;28;20025;-68
2022/05/07 04:57:37;;;;;;;25.33;17.00;;;;;;;-145.18;100.00;60484.78;5034920;28;20025;-68
2022/05/07 05:00:06;;;;;;;26.83;17.93;;;;;;;-145.18;100.00;60484.78;5036524;28;20104;-68
2022/05/07 05:02:32;;;;;;;24.80;17.70;;;;;;;-145.18;100.00;60484.78;5036719;28;20030;-68
2022/05/07 05:04:57;;;;;;;30.23;18.83;;;;;;;-145.18;100.00;60484.78;5037924;28;20029;-68
2022/05/07 05:07:22;;;;;;;28.57;18.97;;;;;;;-145.18;100.00;60484.78;5037195;28;20029;-68
2022/05/07 05:09:48;;;;;;;28.07;18.53;;;;;;;-145.18;100.00;60484.78;5041386;28;20524;-68
2022/05/07 05:12:13;;;;;;;25.67;18.03;;;;;;;-145.18;100.00;60484.78;5033142;28;20108;-68
2022/05/07 05:17:23;;;;;;;39.30;19.40;;;;;;;-145.18;100.00;60484.78;5035158;28;20048;-68
2022/05/07 05:19:49;;;;;;;30.07;19.03;;;;;;;-145.18;100.00;60484.78;5038199;28;20033;-68
2022/05/07 05:22:14;;;;;;;27.23;19.10;;;;;;;-145.18;100.00;60484.78;5035666;28;20037;-68
2022/05/07 05:24:40;;;;;;;26.00;18.20;;;;;;;-145.18;100.00;60484.78;5035737;28;20425;-68
2022/05/07 05:27:05;;;;;;;28.07;18.30;;;;;;;-145.18;100.00;60484.78;5035285;28;20108;-68
2022/05/07 05:29:32;;;;;;;27.27;18.43;;;;;;;-145.18;100.00;60484.78;5033644;28;20531;-68
2022/05/07 05:31:58;;;;;;;25.40;18.40;;;;;;;-145.18;100.00;60484.78;5033116;28;20048;-68
2022/05/07 05:34:23;;;;;;;25.67;18.03;;;;;;;-145.18;100.00;60484.78;5034161;28;20037;-68
2022/05/07 05:36:48;;;;;;;27.90;18.43;;;;;;;-145.18;100.00;60484.78;5039098;28;20523;-68
2022/05/07 05:39:14;;;;;;;34.10;19.73;;;;;;;-145.18;100.00;60484.78;5032445;28;20037;-68
2022/05/07 05:41:41;;;;;;;36.43;20.03;;;;;;;-145.18;100.00;60484.78;5034058;28;20397;-68
2022/05/07 05:44:06;;;;;;;32.53;19.27;;;;;;;-145.18;100.00;60484.78;5034033;28;20799;-68
2022/05/07 05:46:32;;;;;;;25.73;18.40;;;;;;;-145.18;100.00;60484.78;5038451;28;20025;-68
2022/05/07 05:48:57;;;;;;;27.60;18.25;;;;;;;-145.18;100.00;60484.78;5032942;28;20377;-68
2022/05/07 05:51:23;;;;;;;29.33;18.50;;;;;;;-145.18;100.00;60484.78;5042053;28;20067;-68
2022/05/07 05:53:48;;;;;;;30.75;18.52;;;;;;;-145.18;100.00;60484.78;5031518;28;20064;-68
2022/05/07 05:56:13;;;;;;;28.70;18.23;;;;;;;-145.18;100.00;60484.78;5032929;28;20037;-68
2022/05/07 05:58:39;;;;;;;31.67;18.70;;;;;;;-145.18;100.00;60484.78;5030482;28;20037;-68
2022/05/07 06:01:06;;;;;;;30.00;20.10;;;;;;;-145.18;100.00;60484.78;5036338;28;20037;-68
2022/05/07 06:03:32;;;;;;;28.67;20.07;;;;;;;-145.18;100.00;60484.78;5030560;28;20022;-68
2022/05/07 06:05:57;;;;;;;34.07;21.80;;;;;;;-145.18;100.00;60484.78;5042005;28;20083;-68
2022/05/07 06:08:23;;;;;;;34.00;22.90;;;;;;;-145.18;100.00;60484.78;5032127;28;20041;-68
2022/05/07 06:10:52;;;;;;;33.53;23.07;;;;;;;-145.18;100.00;60484.78;5036966;28;20033;-68
2022/05/07 06:13:18;;;;;;;43.27;27.27;;;;;;;-145.18;100.00;60484.78;5031622;28;20121;-68
2022/05/07 06:15:45;;;;;;;43.07;26.67;;;;;;;-145.18;100.00;60484.78;5039106;28;20034;-68
2022/05/07 06:18:11;;;;;;;39.77;26.97;;;;;;;-145.18;100.00;60484.78;5039505;28;20112;-68
2022/05/07 06:20:36;;;;;;;41.00;28.87;;;;;;;-145.18;100.00;60484.78;5034965;28;20150;-68
2022/05/07 06:23:01;;;;;;;41.23;26.77;;;;;;;-145.18;100.00;60484.78;5033834;28;20025;-68
2022/05/07 06:28:11;;;;;;;41.10;26.53;;;;;;;-145.18;100.00;60484.78;5034574;28;20048;-67
2022/05/07 06:30:36;;;;;;;39.63;26.47;;;;;;;-145.18;100.00;60484.78;5038969;28;20029;-67
2022/05/07 06:33:02;;;;;;;30.88;22.92;;;;;;;-145.18;100.00;60484.78;5029391;28;20036;-68
2022/05/07 06:35:28;;;;;;;30.63;22.23;;;;;;;-145.18;100.00;60484.78;5035260;28;20040;-68
2022/05/07 06:37:53;;;;;;;31.75;21.15;;;;;;;-145.18;100.00;60484.78;5032920;28;20119;-68
2022/05/07 06:40:18;;;;;;;33.85;21.65;;;;;;;-145.18;100.00;60484.78;5031429;28;20112;-68
2022/05/07 06:42:45;;;;;;;30.90;20.98;;;;;;;-145.18;100.00;60484.78;5043828;28;20033;-68
2022/05/07 06:45:11;;;;;;;28.98;20.48;;;;;;;-145.18;100.00;60484.78;5043767;28;20515;-68
2022/05/07 06:47:37;;;;;;;27.27;17.98;;;;;;;-145.18;100.00;60484.78;5031128;28;20025;-68
2022/05/07 06:50:03;;;;;;;27.65;16.73;;;;;;;-145.18;100.00;60484.78;5039630;28;20031;-68
2022/05/07 06:52:29;;;;;;;22.42;15.70;;;;;;;-145.18;100.00;60484.78;5035852;28;20036;-68
2022/05/07 06:54:54;;;;;;;26.48;15.82;;;;;;;-145.18;100.00;60484.78;5031702;28;20037;-68
2022/05/07 06:57:20;;;;;;;29.02;16.05;;;;;;;-145.18;100.00;60484.78;5041870;28;20500;-68
2022/05/07 06:59:45;;;;;;;21.65;16.00;;;;;;;-145.18;100.00;60484.78;5043712;28;20151;-68
2022/05/07 07:02:11;;;;;;;24.52;16.75;;;;;;;-145.18;100.00;60484.78;5048671;28;20021;-68
2022/05/07 07:04:36;;;;;;;26.10;17.73;;;;;;;-145.18;100.00;60484.78;5038221;28;20039;-68
2022/05/07 07:07:01;;;;;;;27.65;17.88;;;;;;;-145.18;100.00;60484.78;5051782;28;20159;-68
2022/05/07 07:09:27;;;;;;;25.05;18.13;;;;;;;-145.18;100.00;60484.78;5043016;28;20041;-68
2022/05/07 07:11:52;;;;;;;31.25;18.90;;;;;;;-145.18;100.00;60484.78;5041911;28;20021;-68
2022/05/07 07:14:17;;;;;;;30.17;18.67;;;;;;;-145.18;100.00;60484.78;5039989;28;20033;-68
2022/05/07 07:16:43;;;;;;;26.73;18.33;;;;;;;-145.18;100.00;60484.78;5041833;28;20039;-68
2022/05/07 07:19:09;;;;;;;28.65;19.35;;;;;;;-145.18;100.00;60484.78;5034038;28;20018;-68
2022/05/07 07:21:35;;;;;;;28.52;18.88;;;;;;;-145.18;100.00;60484.78;5042062;28;20044;-68
2022/05/07 07:24:01;;;;;;;29.77;19.92;;;;;;;-145.18;100.00;60484.78;5043997;28;20029;-68
2022/05/07 07:26:27;;;;;;;32.70;19.50;;;;;;;-145.18;100.00;60484.78;5039180;28;20021;-68
2022/05/07 07:28:53;;;;;;;29.48;20.25;;;;;;;-145.18;100.00;60484.78;5034005;28;20053;-68
2022/05/07 07:31:19;;;;;;;31.50;19.65;;;;;;;-145.18;100.00;60484.78;5035378;28;20052;-68
2022/05/07 07:33:44;;;;;;;28.10;20.10;;;;;;;-145.18;100.00;60484.78;5033535;28;20029;-68
2022/05/07 07:36:11;;;;;;;27.52;19.10;;;;;;;-145.18;100.00;60484.78;5038788;28;20035;-67
2022/05/07 07:38:38;;;;;;;27.63;17.45;;;;;;;-145.18;100.00;60484.78;5046679;28;20116;-68
2022/05/07 07:41:04;;;;;;;26.88;17.83;;;;;;;-145.18;100.00;60484.78;5033994;28;20215;-68
2022/05/07 07:43:30;;;;;;;28.23;17.20;;;;;;;-145.18;100.00;60484.78;5041268;28;20032;-68
2022/05/07 07:48:40;;;;;;;23.48;15.60;;;;;;;-145.18;100.00;60484.78;5037645;28;20661;-68
2022/05/07 07:51:08;;;;;;;19.60;14.10;;;;;;;-145.18;100.00;60484.78;5041861;28;20056;-68
2022/05/07 07:53:34;;;;;;;20.60;14.40;;;;;;;-145.18;100.00;60484.78;5037382;28;20017;-68
2022/05/07 07:56:00;;;;;;;23.30;14.20;;;;;;;-145.18;100.00;60484.78;5037084;28;20028;-68
2022/05/07 07:58:26;;;;;;;20.58;13.80;;;;;;;-145.18;100.00;60484.78;5033120;28;20477;-68
2022/05/07 08:00:52;;;;;;;21.48;13.38;;;;;;;-145.18;100.00;60484.78;5041142;28;20536;-68
2022/05/07 08:03:19;;;;;;;18.98;13.10;;;;;;;-145.18;100.00;60484.78;5036255;28;20025;-68
2022/05/07 08:05:47;;;;;;;18.33;10.95;;;;;;;-145.18;100.00;60484.78;5034158;28;20471;-68
2022/05/07 08:13:45;;;;;;;19.00;12.60;;;;;;;-145.18;100.00;60484.78;5036016;28;20040;-68
2022/05/07 08:16:11;;;;;;;18.83;12.05;;;;;;;-145.18;100.00;60484.78;5041498;28;20155;-68
2022/05/07 08:18:38;;;;;;;17.42;10.00;;;;;;;-145.18;100.00;60484.78;5038073;28;20131;-68
2022/05/07 08:21:05;;;;;;;12.88;8.75;;;;;;;-145.18;100.00;60484.78;5035005;28;20405;-68
2022/05/07 08:23:31;;;;;;;12.52;9.40;;;;;;;-145.18;100.00;60484.78;5042654;28;20025;-68
2022/05/07 08:25:56;;;;;;;15.88;9.27;;;;;;;-145.18;100.00;60484.78;5032512;28;20026;-68
2022/05/07 08:28:24;;;;;;;11.90;8.38;;;;;;;-145.18;100.00;60484.78;5038011;28;20080;-68
2022/05/07 08:30:50;;;;;;;14.70;8.57;;;;;;;-145.18;100.00;60484.78;5034117;28;20075;-68
2022/05/07 08:33:18;;;;;;;19.13;9.63;;;;;;;-145.18;100.00;60484.78;5042556;28;20112;-68
2022/05/07 08:35:44;;;;;;;16.45;9.60;;;;;;;-145.18;100.00;60484.78;5038328;28;20039;-68
2022/05/07 08:38:09;;;;;;;17.35;9.50;;;;;;;-145.18;100.00;60484.78;5037002;28;20388;-68
2022/05/07 08:40:35;;;;;;;15.57;8.50;;;;;;;-145.18;100.00;60484.78;5049217;28;20029;-68
2022/05/07 08:43:03;;;;;;;15.75;9.00;;;;;;;-145.18;100.00;60484.78;5032304;28;20424;-68
2022/05/07 08:45:28;;;;;;;14.43;8.68;;;;;;;-145.18;100.00;60484.78;5038511;28;20036;-68
2022/05/07 08:47:54;;;;;;;11.35;8.02;;;;;;;-145.18;100.00;60484.78;5050060;28;20104;-68
2022/05/07 08:50:20;;;;;;;12.43;8.05;;;;;;;-145.18;100.00;60484.78;5046905;28;20025;-68
2022/05/07 08:52:46;;;;;;;12.43;7.30;;;;;;;-145.18;100.00;60484.78;5048565;28;20029;-68
2022/05/07 08:55:17;;;;;;;13.93;7.43;;;;;;;-145.18;100.00;60484.78;5039746;28;20044;-68
2022/05/07 08:57:45;;;;;;;16.75;8.30;;;;;;;-145.18;100.00;60484.78;5048940;28;20036;-68
2022/05/07 09:00:11;;;;;;;17.67;8.07;;;;;;;-145.18;100.00;60484.78;5040122;28;20029;-69
2022/05/07 09:02:42;;;;;;;12.73;7.78;;;;;;;-145.18;100.00;60484.78;5031385;28;20056;-69
2022/05/07 09:05:09;;;;;;;16.13;7.37;;;;;;;-145.18;100.00;60484.78;5038052;28;20269;-68
2022/05/07 09:07:35;;;;;;;13.30;7.80;;;;;;;-145.18;100.00;60484.78;5031664;28;20033;-68
2022/05/07 09:10:00;;;;;;;13.43;8.18;;;;;;;-145.18;100.00;60484.78;5035053;28;20081;-68
2022/05/07 09:12:28;;;;;;;15.45;8.50;;;;;;;-145.18;100.00;60484.78;5034073;28;20099;-68
2022/05/07 09:15:00;;;;;;;15.20;8.80;;;;;;;-145.18;100.00;60484.78;5042880;28;20028;-68
2022/05/07 09:17:25;;;;;;;13.20;8.65;;;;;;;-145.18;100.00;60484.78;5034658;28;20032;-68
2022/05/07 09:19:52;;;;;;;18.15;9.55;;;;;;;-145.18;100.00;60484.78;5035363;28;20574;-68
2022/05/07 09:22:17;;;;;;;15.10;9.65;;;;;;;-145.18;100.00;60484.78;5029828;28;20029;-68
2022/05/07 09:24:53;;;;;;;19.38;10.80;;;;;;;-145.18;100.00;60484.78;5032698;28;20022;-68
2022/05/07 09:27:18;;;;;;;18.10;9.98;;;;;;;-145.18;100.00;60484.78;5037203;28;20392;-68
2022/05/07 09:29:44;;;;;;;19.80;10.63;;;;;;;-145.18;100.00;60484.78;5036861;28;20021;-68
2022/05/07 09:32:13;;;;;;;19.17;10.75;;;;;;;-145.18;100.00;60484.78;5031680;28;20097;-68
2022/05/07 09:37:34;;;;;;;20.60;10.32;;;;;;;-145.18;100.00;60484.78;5039217;28;20092;-68
2022/05/07 09:40:04;;;;;;;19.95;9.82;;;;;;;-145.18;100.00;60484.78;5047283;28;20105;-68
2022/05/07 09:42:31;;;;;;;16.35;9.65;;;;;;;-145.18;100.00;60484.78;5036840;28;20036;-68
2022/05/07 09:44:56;;;;;;;17.98;9.88;;;;;;;-145.18;100.00;60484.78;5034221;28;20103;-68
2022/05/07 09:47:22;;;;;;;17.30;9.68;;;;;;;-145.18;100.00;60484.78;5038335;28;20132;-68
2022/05/07 09:52:32;;;;;;;18.15;9.68;;;;;;;-145.18;100.00;60484.78;5031035;28;20035;-67
2022/05/07 09:57:41;;;;;;;15.35;8.85;;;;;;;-145.18;100.00;60484.78;5046244;28;20035;-67
2022/05/07 10:00:11;;;;;;;16.33;8.40;;;;;;;-145.18;100.00;60484.78;5033139;28;20029;-68
2022/05/07 10:03:05;;;;;;;14.38;8.20;;;;;;;-145.18;100.00;60484.78;5048179;28;20032;-67
2022/05/07 10:05:33;;;;;;;15.88;7.53;;;;;;;-145.18;100.00;60484.78;5036212;28;20032;-67
2022/05/07 10:08:17;;;;;;;14.85;7.57;;;;;;;-145.18;100.00;60484.78;5031278;28;20027;-68
2022/05/07 10:10:46;;;;;;;12.15;6.90;;;;;;;-145.18;100.00;60484.78;5038608;28;20028;-68
2022/05/07 10:13:16;;;;;;;13.00;6.97;;;;;;;-145.18;100.00;60484.78;5030218;28;20059;-67
2022/05/07 10:15:41;;;;;;;12.10;6.10;;;;;;;-145.18;100.00;60484.78;5035877;28;20060;-67
2022/05/07 10:18:07;;;;;;;11.63;6.78;;;;;;;-145.18;100.00;60484.78;5030591;28;20084;-67
2022/05/07 10:20:44;;;;;;;13.82;6.50;;;;;;;-145.18;100.00;60484.78;5035565;28;20021;-68
2022/05/07 10:23:14;;;;;;;11.80;5.95;;;;;;;-145.18;100.00;60484.78;5031031;28;20033;-68
2022/05/07 10:25:43;;;;;;;11.18;6.32;;;;;;;-145.18;100.00;60484.78;5043190;28;20785;-67
2022/05/07 10:28:14;;;;;;;11.77;5.90;;;;;;;-145.18;100.00;60484.78;5030639;28;20025;-68
2022/05/07 10:30:46;;;;;;;13.65;6.22;;;;;;;-145.18;100.00;60484.78;5038281;28;20032;-67
2022/05/07 10:33:12;;;;;;;13.02;5.60;;;;;;;-145.18;100.00;60484.78;5032431;28;20557;-67
2022/05/07 10:35:54;;;;;;;10.23;5.95;;;;;;;-145.18;100.00;60484.78;5040607;28;20116;-69
2022/05/07 10:38:27;;;;;;;10.68;6.55;;;;;;;-145.18;100.00;60484.78;5037693;28;20591;-68
2022/05/07 10:41:01;;;;;;;10.68;5.88;;;;;;;-145.18;100.00;60484.78;5040888;28;20033;-68
2022/05/07 10:43:47;;;;;;;11.77;6.50;;;;;;;-145.18;100.00;60484.78;5041515;28;20035;-68
2022/05/07 10:46:19;;;;;;;10.38;6.28;;;;;;;-145.18;100.00;60484.78;5040922;28;20107;-68
2022/05/07 10:48:45;;;;;;;9.32;6.25;;;;;;;-145.18;100.00;60484.78;5039819;28;20024;-68
2022/05/07 10:51:27;;;;;;;12.38;6.55;;;;;;;-145.18;100.00;60484.78;5053908;28;20017;-68
2022/05/07 10:53:52;;;;;;;13.00;7.00;;;;;;;-145.18;100.00;60484.78;5054891;28;20071;-68
2022/05/07 10:56:20;;;;;;;15.55;7.43;;;;;;;-145.18;100.00;60484.78;5053807;28;20053;-68
2022/05/07 10:58:50;;;;;;;12.80;7.07;;;;;;;-145.18;100.00;60484.78;5045430;28;20025;-68
2022/05/07 11:01:17;;;;;;;13.00;6.85;;;;;;;-145.18;100.00;60484.78;5041275;28;20104;-68
2022/05/07 11:03:43;;;;;;;14.50;6.25;;;;;;;-145.18;100.00;60484.78;5054701;28;20390;-68
2022/05/07 11:06:08;;;;;;;10.13;5.55;;;;;;;-145.18;100.00;60484.78;5043326;28;20028;-68
2022/05/07 11:08:45;;;;;;;9.93;5.40;;;;;;;-145.18;100.00;60484.78;5044478;28;20057;-67
2022/05/07 11:11:10;;;;;;;11.07;5.65;;;;;;;-145.18;100.00;60484.78;5048070;28;20032;-68
2022/05/07 11:13:56;;;;;;;9.13;5.30;;;;;;;-145.18;100.00;60484.78;5041167;28;20032;-68
2022/05/07 11:16:23;;;;;;;10.93;5.68;;;;;;;-145.18;100.00;60484.78;5044435;28;20033;-67
2022/05/07 11:18:52;;;;;;;10.60;5.55;;;;;;;-145.18;100.00;60484.78;5043013;28;20108;-67
2022/05/07 11:21:21;;;;;;;12.05;5.25;;;;;;;-145.18;100.00;60484.78;5048236;28;20131;-68
2022/05/07 11:23:54;;;;;;;10.45;5.40;;;;;;;-145.18;100.00;60484.78;5044424;28;20032;-68
2022/05/07 11:26:20;;;;;;;8.30;4.43;;;;;;;-145.18;100.00;60484.78;5041390;28;20033;-68
2022/05/07 11:28:47;;;;;;;8.80;4.93;;;;;;;-145.18;100.00;60484.78;5040286;28;20017;-68
2022/05/07 11:31:32;;;;;;;8.73;4.40;;;;;;;-145.18;100.00;60484.78;5042113;28;20033;-68